Home > Products > Valid Products > TAF

000
FTUS43 KDTX 311733
TAFFNT
TAF
KFNT 311733Z 3118/0118 24009KT P6SM BKN040
     FM312200 23009KT P6SM OVC025
     FM010600 03010KT P6SM OVC025
     FM011000 04012KT 2SM -SN OVC015
     FM011600 04012KT 1SM -SN OVC010=



000
FTUS43 KDTX 311733
TAFDTW
TAF
KDTW 311733Z 3118/0124 22010KT P6SM SCT028
     FM311900 22010KT P6SM BKN045
     FM010000 23005KT P6SM OVC025
     FM010800 VRB03KT 2SM -SN OVC015
     FM011400 03010KT 1SM -SN OVC010
     FM012000 03014KT 3/4SM -SN OVC008=



000
FTUS43 KDTX 311733
TAFMBS
TAF
KMBS 311733Z 3118/0118 24009KT P6SM BKN040
     FM312100 23009KT P6SM OVC025
     FM010400 03010KT P6SM OVC025
     FM011200 04014KT 2SM -SN OVC010=



000
FTUS43 KDTX 311733
TAFDET
TAF
KDET 311733Z 3118/0118 22010KT P6SM SCT028
     FM311900 22010KT P6SM BKN045
     FM010000 23005KT P6SM OVC025
     FM010800 VRB03KT 2SM -SN OVC015
     FM011400 03012KT 1SM -SN OVC010=



000
FTUS43 KDTX 311448 AAA
TAFDTW
TAF AMD
KDTW 311448Z 3115/0118 21005KT P6SM SCT028
     FM312100 24009KT P6SM SCT025 BKN040
     FM010000 23005KT P6SM OVC025
     FM010800 VRB03KT 1SM -SN OVC015
     FM011400 03007KT 1SM -SN OVC010=



000
FTUS43 KDTX 311356 AAA
TAFMBS
TAF AMD
KMBS 311356Z 3114/0112 21009KT P6SM SCT030 OVC090
     FM311800 24009KT P6SM OVC025
     FM010000 23005KT P6SM OVC015=



000
FTUS43 KDTX 311356 AAA
TAFFNT
TAF AMD
KFNT 311356Z 3114/0112 21009KT P6SM SCT030 OVC090
     FM311800 24009KT P6SM OVC015
     FM010000 23005KT P6SM OVC010
     FM011000 VRB03KT 1SM -SN OVC008=



000
FTUS43 KDTX 311140
TAFDET
TAF
KDET 311140Z 3112/0112 17005KT P6SM BKN028
     FM311400 21005KT P6SM SCT030 BKN060
     FM312100 24009KT P6SM SCT025 BKN040
     FM010000 23005KT P6SM OVC025
     FM010800 VRB03KT 1SM -SN OVC015=



000
FTUS43 KDTX 311140
TAFDTW
TAF
KDTW 311140Z 3112/0118 17005KT P6SM BKN028
     FM311400 21005KT P6SM SCT030 BKN060
     FM312100 24009KT P6SM SCT025 BKN040
     FM010000 23005KT P6SM OVC025
     FM010800 VRB03KT 1SM -SN OVC015
     FM011400 03007KT 1SM -SN OVC010=



000
FTUS43 KDTX 311140
TAFMBS
TAF
KMBS 311140Z 3112/0112 19006KT P6SM OVC030
     FM311800 24009KT P6SM OVC025
     FM010000 23005KT P6SM OVC015=



000
FTUS43 KDTX 311140
TAFFNT
TAF
KFNT 311140Z 3112/0112 23007KT P6SM BKN030 OVC060
     FM311800 24009KT P6SM OVC015
     FM010000 23005KT P6SM OVC010
     FM011000 VRB03KT 1SM -SN OVC008=



000
FTUS43 KDTX 310859 AAA
TAFDTW
TAF AMD
KDTW 310859Z 3109/0112 VRB03KT P6SM SCT040 BKN080
     FM311000 21005KT P6SM SCT030 BKN080
     FM311800 24009KT P6SM SCT025 BKN040
     FM010000 23005KT P6SM OVC025
     FM010600 VRB03KT 2SM -SHSN OVC015=



000
FTUS43 KDTX 310538
TAFDTW
TAF
KDTW 310538Z 3106/0112 VRB03KT P6SM SCT040 BKN080
     FM311000 21005KT P6SM SCT030 BKN080
     FM311800 24009KT P6SM SCT025 BKN040
     FM010000 23005KT P6SM OVC025
     FM010600 VRB03KT 2SM -SHSN OVC015=



000
FTUS43 KDTX 310538
TAFFNT
TAF
KFNT 310538Z 3106/0106 VRB03KT P6SM SCT030 BKN090
     FM311000 21005KT P6SM SCT030 BKN070
     FM311800 24009KT P6SM SCT020 BKN035
     FM010000 23005KT P6SM OVC025=



000
FTUS43 KDTX 310538
TAFDET
TAF
KDET 310538Z 3106/0106 VRB03KT P6SM SCT040 BKN080
     FM311000 21005KT P6SM SCT030 BKN080
     FM311800 24009KT P6SM SCT025 BKN040
     FM010000 23005KT P6SM OVC025=



000
FTUS43 KDTX 310538
TAFMBS
TAF
KMBS 310538Z 3106/0106 VRB03KT P6SM SCT035 BKN080
     FM311100 21006KT P6SM OVC060
     FM311800 24009KT P6SM OVC025
     FM010000 23005KT P6SM OVC015=



000
FTUS43 KDTX 310321 AAA
TAFMBS
TAF AMD
KMBS 310321Z 3103/3124 VRB03KT P6SM SCT035 BKN080
     FM311100 21006KT P6SM OVC028
     FM311800 24009KT P6SM OVC025=



000
FTUS43 KDTX 310320 AAA
TAFFNT
TAF AMD
KFNT 310320Z 3103/3124 VRB03KT P6SM SCT030 BKN090
     FM311000 21005KT P6SM SCT030 BKN070
     FM311800 24009KT P6SM SCT020 BKN035=



000
FTUS43 KDTX 310320 AAA
TAFDET
TAF AMD
KDET 310320Z 3103/3124 VRB03KT P6SM SCT040 BKN080
     FM311000 21005KT P6SM SCT030 BKN080
     FM311800 24009KT P6SM SCT025 BKN040=



000
FTUS43 KDTX 310306 AAA
TAFDTW
TAF AMD
KDTW 310306Z 3103/0106 VRB03KT P6SM SCT040 BKN080
     FM311000 21005KT P6SM SCT030 BKN080
     FM311800 24009KT P6SM SCT025 BKN040
     FM010000 23005KT P6SM OVC025=



000
FTUS43 KDTX 302341
TAFFNT
TAF
KFNT 302341Z 3100/3124 VRB03KT P6SM SCT030 BKN090
     FM310400 20004KT P6SM OVC030
     FM311000 21005KT P6SM SCT030 BKN070
     FM311800 24009KT P6SM SCT020 BKN035=



000
FTUS43 KDTX 302341
TAFMBS
TAF
KMBS 302341Z 3100/3124 VRB03KT P6SM SCT035 BKN080
     FM310200 20004KT P6SM OVC035
     FM311100 21006KT P6SM OVC028
     FM311800 24009KT P6SM OVC025=



000
FTUS43 KDTX 302341
TAFDET
TAF
KDET 302341Z 3100/3124 VRB03KT P6SM SCT040 BKN080
     FM310400 20004KT P6SM BKN035
     FM311000 21005KT P6SM SCT030 BKN080
     FM311800 24009KT P6SM SCT025 BKN040=



000
FTUS43 KDTX 302341
TAFDTW
TAF
KDTW 302341Z 3100/0106 VRB03KT P6SM SCT040 BKN080
     FM310400 20004KT P6SM BKN035
     FM311000 21005KT P6SM SCT030 BKN080
     FM311800 24009KT P6SM SCT025 BKN040
     FM010000 23005KT P6SM OVC025=



000
FTUS43 KDTX 302038 AAA
TAFFNT
TAF AMD
KFNT 302038Z 3021/3118 32009KT P6SM FEW030
     FM310000 VRB03KT P6SM SCT030 BKN090
     FM310400 20004KT P6SM OVC030
     FM311000 21005KT P6SM SCT030 BKN070=



000
FTUS43 KDTX 302037 AAA
TAFMBS
TAF AMD
KMBS 302037Z 3021/3118 33009KT P6SM FEW035
     FM310000 VRB03KT P6SM SCT035 BKN080
     FM310200 20004KT P6SM OVC035
     FM311100 21006KT P6SM OVC028=



000
FTUS43 KDTX 302037 AAA
TAFDET
TAF AMD
KDET 302037Z 3021/3118 33009KT P6SM FEW030
     FM310000 VRB03KT P6SM SCT040 BKN080
     FM310400 20004KT P6SM BKN035
     FM311000 21005KT P6SM SCT030 BKN080=



000
FTUS43 KDTX 302027 AAA
TAFDTW
TAF AMD
KDTW 302027Z 3020/3124 31010KT P6SM FEW035 SCT250
     FM310000 VRB03KT P6SM SCT040 BKN080
     FM310400 20004KT P6SM BKN035
     FM311000 21005KT P6SM SCT030 BKN080
     FM311800 24009KT P6SM SCT025 BKN040=



000
FTUS43 KDTX 301724
TAFDET
TAF
KDET 301724Z 3018/3118 33011G21KT P6SM SCT030
     FM310000 VRB03KT P6SM SCT040 BKN080
     FM310400 20004KT P6SM BKN035
     FM311000 21005KT P6SM SCT030 BKN080=



000
FTUS43 KDTX 301724
TAFMBS
TAF
KMBS 301724Z 3018/3118 33011G20KT P6SM SCT035
     FM310000 VRB03KT P6SM SCT035 BKN080
     FM310200 20004KT P6SM OVC035
     FM311100 21006KT P6SM OVC028=



000
FTUS43 KDTX 301724
TAFFNT
TAF
KFNT 301724Z 3018/3118 32011G20KT P6SM SCT030
     FM310000 VRB03KT P6SM SCT030 BKN090
     FM310400 20004KT P6SM OVC030
     FM311000 21005KT P6SM SCT030 BKN070=



000
FTUS43 KDTX 301724
TAFDTW
TAF
KDTW 301724Z 3018/3124 33011G21KT P6SM SCT030
     FM310000 VRB03KT P6SM SCT040 BKN080
     FM310400 20004KT P6SM BKN035
     FM311000 21005KT P6SM SCT030 BKN080
     FM311800 24009KT P6SM SCT025 BKN040=



000
FTUS43 KDTX 301413 AAA
TAFDTW
TAF AMD
KDTW 301413Z 3014/3118 33014G22KT P6SM SCT028
      TEMPO 3014/3016 BKN028
     FM302000 30008KT P6SM FEW040 SCT080
     FM310000 VRB03KT P6SM SCT040 BKN080
     FM310800 20004KT P6SM OVC030=



000
FTUS43 KDTX 301122
TAFFNT
TAF
KFNT 301122Z 3012/3112 32015G25KT 6SM -SHSN BKN035
     FM301400 32014G22KT P6SM SCT040
     FM302000 30008KT P6SM SCT040 BKN100
     FM310000 VRB03KT P6SM SCT040 BKN080
     FM310600 20004KT P6SM OVC020=



000
FTUS43 KDTX 301122
TAFMBS
TAF
KMBS 301122Z 3012/3112 32015G25KT P6SM BKN035
     FM301400 33014G22KT P6SM SCT040
     FM302000 30006KT P6SM SCT040 BKN100
     FM310000 VRB03KT P6SM SCT040 BKN080
     FM310400 20004KT P6SM OVC015=



000
FTUS43 KDTX 301122
TAFDET
TAF
KDET 301122Z 3012/3112 32015G25KT 6SM -SHSN BKN030
     FM301500 33014G22KT P6SM SCT040
     FM302000 30008KT P6SM FEW040 SCT080
     FM310000 VRB03KT P6SM SCT040 BKN080
     FM310800 20004KT P6SM OVC030=



000
FTUS43 KDTX 301122
TAFDTW
TAF
KDTW 301122Z 3012/3118 32015G25KT 6SM -SHSN BKN035
     FM301500 33014G22KT P6SM SCT040
     FM302000 30008KT P6SM FEW040 SCT080
     FM310000 VRB03KT P6SM SCT040 BKN080
     FM310800 20004KT P6SM OVC030=



000
FTUS43 KDTX 301121
TAFFNT
TAF
KFNT 301121Z 3012/3112 32015G25KT 6SM -SHSN BKN035
     FM301400 32014G22KT P6SM SCT040
     FM302000 30008KT P6SM SCT040 BKN100
     FM310000 VRB03KT P6SM SCT040 BKN080
     FM310600 20004KT P6SM OVC020=



000
FTUS43 KDTX 301121
TAFDTW
TAF
KDTW 301121Z 3012/3118 32015G25KT 5SM -SHSN BKN035
     FM301500 33014G22KT P6SM SCT040
     FM302000 30008KT P6SM FEW040 SCT080
     FM310000 VRB03KT P6SM SCT040 BKN080
     FM310800 20004KT P6SM OVC030=



000
FTUS43 KDTX 301121
TAFDET
TAF
KDET 301121Z 3012/3112 32015G25KT 5SM -SHSN BKN030
     FM301500 33014G22KT P6SM SCT040
     FM302000 30008KT P6SM FEW040 SCT080
     FM310000 VRB03KT P6SM SCT040 BKN080
     FM310800 20004KT P6SM OVC030=



000
FTUS43 KDTX 301121
TAFMBS
TAF
KMBS 301121Z 3012/3112 32015G25KT P6SM BKN035
     FM301400 33014G22KT P6SM SCT040
     FM302000 30006KT P6SM SCT040 BKN100
     FM310000 VRB03KT P6SM SCT040 BKN080
     FM310400 20004KT P6SM OVC015=



000
FTUS43 KDTX 300538
TAFFNT
TAF
KFNT 300538Z 3006/3106 31016G28KT P6SM -SHSN OVC025
     FM300700 32015G25KT P6SM BKN030
     FM301200 32014G22KT P6SM SCT040
     FM302000 30008KT P6SM SCT040 BKN100
     FM310000 VRB03KT P6SM SCT040 BKN080=



000
FTUS43 KDTX 300538
TAFDET
TAF
KDET 300538Z 3006/3106 31017G28KT P6SM -SHSN OVC035
     FM300900 32015G25KT P6SM BKN035
     FM301200 33014G22KT P6SM SCT040
     FM302000 30008KT P6SM FEW040 SCT080
     FM310000 VRB03KT P6SM SCT040 BKN080=



000
FTUS43 KDTX 300538
TAFMBS
TAF
KMBS 300538Z 3006/3106 32015G25KT P6SM BKN025
     FM301200 33014G22KT P6SM SCT040
     FM302000 30006KT P6SM SCT040 BKN100
     FM310000 VRB03KT P6SM SCT040 BKN080=



000
FTUS43 KDTX 300538
TAFDTW
TAF
KDTW 300538Z 3006/3112 31017G28KT P6SM -SHSN OVC035
     FM300900 32015G25KT P6SM BKN035
     FM301200 33014G22KT P6SM SCT040
     FM302000 30008KT P6SM FEW040 SCT080
     FM310000 VRB03KT P6SM SCT040 BKN080=



000
FTUS43 KDTX 300321 AAA
TAFFNT
TAF AMD
KFNT 300321Z 3003/3024 31016G28KT P6SM -SHSN OVC035
     FM300700 32015G25KT P6SM BKN030
     FM301200 32014G22KT P6SM SCT040
     FM302000 30008KT P6SM SCT040 BKN100=



000
FTUS43 KDTX 300318 AAA
TAFDET
TAF AMD
KDET 300318Z 3003/3024 30012G22KT P6SM OVC025
     FM300400 31017G28KT P6SM -SHSN OVC025
     FM300900 32015G25KT P6SM BKN035
     FM301200 33014G22KT P6SM SCT040
     FM302000 30008KT P6SM FEW040 SCT080=



000
FTUS43 KDTX 300307 AAA
TAFDTW
TAF AMD
KDTW 300307Z 3003/3106 30012G22KT P6SM OVC035
     FM300400 31017G28KT P6SM -SHSN OVC035
     FM300900 32015G25KT P6SM BKN035
     FM301200 33014G22KT P6SM SCT040
     FM302000 30008KT P6SM FEW040 SCT080
     FM310000 VRB03KT P6SM SCT040 BKN080=



000
FTUS43 KDTX 292335
TAFDTW
TAF
KDTW 292335Z 3000/3106 30012G22KT P6SM OVC025
      TEMPO 3000/3004 4SM -SHSN BKN015
     FM300400 31017G28KT P6SM -SHSN OVC025
     FM300900 32015G25KT P6SM BKN035
     FM301200 33014G22KT P6SM SCT040
     FM302000 30008KT P6SM FEW040 SCT080
     FM310000 VRB03KT P6SM SCT040 BKN080=



000
FTUS43 KDTX 292335
TAFDET
TAF
KDET 292335Z 3000/3024 30012G22KT P6SM OVC018
      TEMPO 3000/3004 4SM -SHSN
     FM300400 31017G28KT P6SM -SHSN OVC025
     FM300900 32015G25KT P6SM BKN035
     FM301200 33014G22KT P6SM SCT040
     FM302000 30008KT P6SM FEW040 SCT080=



000
FTUS43 KDTX 292335
TAFFNT
TAF
KFNT 292335Z 3000/3024 31012G25KT P6SM OVC020
      TEMPO 3000/3002 4SM HZ
     FM300200 31016G28KT P6SM -SHSN OVC024
     FM300700 32015G25KT P6SM BKN030
     FM301200 32014G22KT P6SM SCT040
     FM302000 30008KT P6SM SCT040 BKN100=



000
FTUS43 KDTX 292335
TAFMBS
TAF
KMBS 292335Z 3000/3024 31011G19KT P6SM OVC025
     FM300100 32016G28KT P6SM -SHSN OVC024
     FM300600 32015G25KT P6SM BKN035
     FM301200 33014G22KT P6SM SCT040
     FM302000 30006KT P6SM SCT040 BKN100=



000
FTUS43 KDTX 292236 AAC
TAFDET
TAF AMD
KDET 292236Z 2923/3018 30012G22KT 3SM -SHSN OVC018
     FM300400 31017G28KT P6SM -SHSN OVC025
     FM300900 32015G25KT P6SM BKN035=



000
FTUS43 KDTX 292235 AAC
TAFDTW
TAF AMD
KDTW 292235Z 2923/3024 30012G22KT 3SM -SHSN OVC018
     FM300400 31017G28KT P6SM -SHSN OVC025
     FM300900 32015G25KT P6SM BKN035
     FM301200 33014G22KT P6SM SCT040=



000
FTUS43 KDTX 292008 AAB
TAFDET
TAF AMD
KDET 292008Z 2920/3018 31011G18KT 5SM -SHSN SCT012 OVC022
      TEMPO 2920/2922 1SM -SN OVC012
     FM292200 30012G22KT P6SM OVC018
     FM300400 31017G28KT P6SM -SHSN OVC025
     FM300900 32015G25KT P6SM BKN035=



000
FTUS43 KDTX 292008 CCA
TAFDTW
TAF COR
KDTW 292008Z 2920/3024 31011G18KT 5SM -SHSN SCT012 OVC022
      TEMPO 2920/2922 1SM -SN OVC012
     FM292200 30012G22KT P6SM OVC018
     FM300400 31017G28KT P6SM -SHSN OVC025
     FM300900 32015G25KT P6SM BKN035
     FM301200 33014G22KT P6SM SCT040=



000
FTUS43 KDTX 292007 AAB
TAFDTW
TAF AMD
KDTW 292007Z 2920/3024 29011G18KT 5SM -SHSN SCT012 OVC022
      TEMPO 2920/2922 1SM -SN OVC012
     FM292200 30012G22KT P6SM OVC018
     FM300400 31017G28KT P6SM -SHSN OVC025
     FM300900 32015G25KT P6SM BKN035
     FM301200 33014G22KT P6SM SCT040=



000
FTUS43 KDTX 291957 AAB
TAFFNT
TAF AMD
KFNT 291957Z 2920/3018 31011KT 3SM -SN OVC028
      TEMPO 2920/2921 1SM -SN OVC010
     FM292200 31012G25KT P6SM OVC016
     FM300200 31016G28KT P6SM -SHSN OVC024
     FM300700 32015G25KT P6SM BKN030=



000
FTUS43 KDTX 291901 AAA
TAFDET
TAF AMD
KDET 291901Z 2919/3018 19005KT P6SM SCT026 OVC035
      TEMPO 2919/2920 2SM -SHSN OVC026
     FM292000 29011G18KT 6SM -SHSN SCT012 OVC022
     FM292200 30012G22KT P6SM OVC018
     FM300400 31017G28KT P6SM -SHSN OVC025
     FM300900 32015G25KT P6SM BKN035=



000
FTUS43 KDTX 291901 AAA
TAFDTW
TAF AMD
KDTW 291901Z 2919/3024 24005KT P6SM SCT026 OVC035
      TEMPO 2919/2920 2SM -SHSN OVC026
     FM292000 29011G18KT 6SM -SHSN SCT012 OVC022
     FM292200 30012G22KT P6SM OVC018
     FM300400 31017G28KT P6SM -SHSN OVC025
     FM300900 32015G25KT P6SM BKN035
     FM301200 33014G22KT P6SM SCT040=



000
FTUS43 KDTX 291842 AAA
TAFFNT
TAF AMD
KFNT 291842Z 2919/3018 30006KT 3SM -SN OVC028
      TEMPO 2919/2920 1SM -SN OVC012
     FM292100 31012G25KT P6SM OVC016
     FM300200 31016G28KT P6SM -SHSN OVC024
     FM300700 32015G25KT P6SM BKN030=



000
FTUS43 KDTX 291724
TAFFNT
TAF
KFNT 291724Z 2918/3018 24006KT 6SM -SN OVC028
     FM292100 31012G25KT P6SM OVC016
     FM300200 31016G28KT P6SM -SHSN OVC024
     FM300700 32015G25KT P6SM BKN030=



000
FTUS43 KDTX 291724
TAFDTW
TAF
KDTW 291724Z 2918/3024 19005KT P6SM SCT026 OVC035
      TEMPO 2918/2920 6SM -SHRA OVC026
     FM292000 29011G18KT 6SM -SHSN SCT012 OVC022
     FM292200 30012G22KT P6SM OVC018
     FM300400 31017G28KT P6SM -SHSN OVC025
     FM300900 32015G25KT P6SM BKN035
     FM301200 33014G22KT P6SM SCT040=



000
FTUS43 KDTX 291724
TAFDET
TAF
KDET 291724Z 2918/3018 19005KT P6SM SCT026 OVC035
      TEMPO 2918/2920 6SM -SHRA OVC026
     FM292000 29011G18KT 6SM -SHSN SCT012 OVC022
     FM292200 30012G22KT P6SM OVC018
     FM300400 31017G28KT P6SM -SHSN OVC025
     FM300900 32015G25KT P6SM BKN035=



000
FTUS43 KDTX 291724
TAFMBS
TAF
KMBS 291724Z 2918/3018 34006KT 3SM -SN BR BKN022 OVC045
     FM292000 31011G19KT P6SM OVC018
     FM300100 32016G28KT P6SM -SHSN OVC024
     FM300600 32015G25KT P6SM BKN035=



000
FTUS43 KDTX 291503 AAA
TAFMBS
TAF AMD
KMBS 291503Z 2915/3012 16005KT 2SM -SN OVC035
      TEMPO 2915/2917 1 1/2SM -SN OVC022
     FM291700 21010KT 3SM -SN BR SCT018 OVC028
     FM292000 29012G18KT 1 1/2SM -SHSN BR BKN009 OVC022
     FM292200 30014G21KT 6SM -SN BKN018 OVC035
     FM300200 31017G25KT P6SM SCT025 OVC040=



000
FTUS43 KDTX 291502 AAA
TAFFNT
TAF AMD
KFNT 291502Z 2915/3012 16011KT P6SM OVC040
     FM291600 21010KT 4SM -SNPL BR SCT018 OVC028
     FM291900 29012G18KT 5SM -SHSN BR BKN009 OVC022
     FM292200 30014G21KT 6SM -SN BKN018 OVC035
     FM300200 31016G24KT P6SM SCT025 OVC040=



000
FTUS43 KDTX 291454 AAA
TAFDTW
TAF AMD
KDTW 291454Z 2915/3018 16007KT P6SM BKN040 OVC060
     FM291600 21010KT 4SM -SHRA BR SCT018 OVC028
     FM292000 29012G18KT 3SM -SHSN BR BKN009 OVC022
     FM292300 30013G20KT 6SM -SN BKN025 OVC040
     FM300300 31015G24KT P6SM SCT025 OVC040=



000
FTUS43 KDTX 291454 AAA
TAFDET
TAF AMD
KDET 291454Z 2915/3012 16007KT P6SM BKN040 OVC060
     FM291600 21010KT 4SM -SHRA BR SCT018 OVC028
     FM292000 29012G18KT 3SM -SHSN BR BKN009 OVC022
     FM292300 30013G20KT 6SM -SN BKN025 OVC040
     FM300300 31015G24KT P6SM SCT025 OVC040=



000
FTUS43 KDTX 291120
TAFMBS
TAF
KMBS 291120Z 2912/3012 16011KT P6SM BKN045 OVC070
      TEMPO 2912/2914 6SM -SNPL OVC035
     FM291600 21010KT 3SM -SN BR SCT018 OVC028
     FM291900 29012G18KT 1 1/2SM -SHSN BR BKN009 OVC022
     FM292200 30014G21KT 6SM -SN BKN018 OVC035
     FM300200 31017G25KT P6SM SCT025 OVC040=



000
FTUS43 KDTX 291120
TAFDTW
TAF
KDTW 291120Z 2912/3018 16011KT P6SM SCT045 OVC090
      TEMPO 2912/2914 6SM -FZRAPL OVC045
     FM291600 21010KT 4SM -SHRA BR SCT018 OVC028
     FM292000 29012G18KT 3SM -SHSN BR BKN009 OVC022
     FM292300 30013G20KT 6SM -SN BKN025 OVC040
     FM300300 31015G24KT P6SM SCT025 OVC040=



000
FTUS43 KDTX 291120
TAFFNT
TAF
KFNT 291120Z 2912/3012 16011KT P6SM BKN045 OVC070
      TEMPO 2912/2914 6SM -SNPL OVC035
     FM291600 21010KT 4SM -SN BR SCT018 OVC028
     FM291900 29012G18KT 2SM -SHSN BR BKN009 OVC022
     FM292200 30014G21KT 6SM -SN BKN018 OVC035
     FM300200 31016G24KT P6SM SCT025 OVC040=



000
FTUS43 KDTX 291120
TAFDET
TAF
KDET 291120Z 2912/3012 16011KT P6SM SCT045 OVC090
      TEMPO 2912/2914 6SM -FZRAPL OVC045
     FM291600 21010KT 4SM -SHRA BR SCT018 OVC028
     FM292000 29012G18KT 3SM -SHSN BR BKN009 OVC022
     FM292300 30013G20KT 6SM -SN BKN025 OVC040
     FM300300 31015G24KT P6SM SCT025 OVC040=



000
FTUS43 KDTX 290959 AAA
TAFFNT
TAF AMD
KFNT 290959Z 2910/3006 16012KT P6SM -SNPL OVC050
     FM291400 21010KT 1 1/2SM -SN BR BKN008 OVC018
     FM291900 30014G25KT 3SM -SHSN BKN012 OVC025
     FM300100 31018G30KT 6SM -SN BKN025 OVC040=



000
FTUS43 KDTX 290958 AAA
TAFMBS
TAF AMD
KMBS 290958Z 2910/3006 17012KT 1 1/2SM -SN BKN015 OVC035
     FM291100 17013KT 5SM -SN SCT025 OVC040
     FM291500 21010KT 2SM -SN BR BKN008 OVC018
     FM291900 30014G25KT 3SM -SHSN BKN012 OVC025
     FM300100 31018G30KT 6SM -SN BKN025 OVC040=



000
FTUS43 KDTX 290852 AAA
TAFDET
TAF AMD
KDET 290852Z 2909/3006 15010KT P6SM OVC100
     FM291030 16011KT P6SM -FZRAPL OVC070
     FM291200 17012KT P6SM OVC090
     FM291600 21010KT 4SM -SHRA BR BKN018 OVC035
     FM292000 29014G20KT 3SM -SHSN BKN009 OVC025
     FM292300 30015G25KT 6SM -SN BKN025 OVC040
     FM300300 31013G23KT P6SM SCT025 OVC040=



000
FTUS43 KDTX 290846 AAA
TAFDTW
TAF AMD
KDTW 290846Z 2909/3012 14007KT P6SM OVC100
     FM291000 15010KT P6SM -FZRAPL OVC070
     FM291130 16012KT P6SM OVC090
     FM291600 21010KT 4SM -SHRA BR BKN018 OVC035
     FM292000 29014G20KT 3SM -SHSN BKN009 OVC025
     FM292300 30015G25KT 6SM -SN BKN025 OVC040
     FM300300 31013G23KT P6SM SCT025 OVC040=



000
FTUS43 KDTX 290522
TAFDTW
TAF
KDTW 290522Z 2906/3012 16008KT P6SM BKN100 OVC200
     FM291000 16011G19KT P6SM SCT045 OVC080
     FM291300 17012KT 5SM -FZRAPL BKN030 OVC045
     FM291600 21010KT 2SM -SHRA BR BKN008 OVC022
     FM292000 29014G20KT 3SM -SHSN BKN018 OVC035
     FM300100 30015G25KT 6SM -SN BKN025 OVC040
     FM300600 31015G25KT P6SM SCT025 OVC040=



000
FTUS43 KDTX 290522
TAFMBS
TAF
KMBS 290522Z 2906/3006 16010KT P6SM OVC100
     FM291000 16013G19KT 3SM -SN BKN040 OVC060
     FM291200 17012KT 1SM -SN BR BKN008 OVC018
     FM291500 21010KT 2SM -SN BR BKN005 OVC015
     FM291900 30014G25KT 3SM -SHSN BKN012 OVC025
     FM300100 31018G30KT 6SM -SN BKN025 OVC040=



000
FTUS43 KDTX 290522
TAFFNT
TAF
KFNT 290522Z 2906/3006 16010KT P6SM OVC100
     FM290900 16013G20KT P6SM SCT045 OVC080
     FM291100 17014KT 2SM -SNPL BKN028 OVC040
     FM291400 21010KT 1 1/2SM -SN BR BKN008 OVC018
     FM291900 30014G25KT 3SM -SHSN BKN012 OVC025
     FM300100 31018G30KT 6SM -SN BKN025 OVC040=



000
FTUS43 KDTX 290522
TAFDET
TAF
KDET 290522Z 2906/3006 16008KT P6SM BKN100 OVC200
     FM291000 16011G19KT P6SM SCT045 OVC080
     FM291300 17012KT 5SM -FZRAPL BKN030 OVC045
     FM291600 21010KT 2SM -RA BR BKN008 OVC022
     FM292000 29014G20KT 3SM -SHSN BKN018 OVC035
     FM300100 30015G25KT 6SM -SN BKN025 OVC040=



000
FTUS43 KDTX 290244 AAA
TAFDTW
TAF AMD
KDTW 290244Z 2903/3006 16006KT P6SM SCT120 BKN200
     FM290600 16008KT P6SM BKN080 OVC120
     FM291000 16011G19KT P6SM BKN045 OVC080
     FM291300 17012KT 4SM -FZRAPL BKN030 OVC045
     FM291600 21010KT 2SM -RA BR BKN008 OVC022
     FM292000 29014G20KT 3SM -SHSN BKN018 OVC035
     FM300100 30015G25KT 6SM -SN BKN025 OVC040=



000
FTUS43 KDTX 282336
TAFMBS
TAF
KMBS 282336Z 2900/2924 17006KT P6SM SCT120 BKN200
     FM290200 16010KT P6SM BKN080 OVC120
     FM290900 16013G19KT 3SM -SN BKN040 OVC060
     FM291100 17012KT 3/4SM -SN BR BKN005 OVC012
     FM291500 21010KT 2SM -SN BR BKN008 OVC018
     FM291900 30014G25KT 3SM -SHSN BKN012 OVC025=



000
FTUS43 KDTX 282336
TAFFNT
TAF
KFNT 282336Z 2900/2924 20006KT P6SM SCT120 BKN200
     FM290200 16010KT P6SM BKN080 OVC120
     FM290900 16013G20KT P6SM BKN045 OVC080
     FM291100 17014KT 2SM -SNPL BKN028 OVC040
     FM291400 21010KT 1 1/2SM -SN BR BKN008 OVC018
     FM291900 30014G25KT 3SM -SHSN BKN012 OVC025=



000
FTUS43 KDTX 282336
TAFDTW
TAF
KDTW 282336Z 2900/3006 16006KT P6SM SCT120 BKN200
     FM290200 16008KT P6SM BKN080 OVC120
     FM291000 16011G19KT P6SM BKN045 OVC080
     FM291300 17012KT 4SM -FZRAPL BKN030 OVC045
     FM291600 21010KT 2SM -RA BR BKN008 OVC022
     FM292000 29014G20KT 3SM -SHSN BKN018 OVC035
     FM300100 30015G25KT 6SM -SN BKN025 OVC040=



000
FTUS43 KDTX 282336
TAFDET
TAF
KDET 282336Z 2900/2924 17005KT P6SM SCT120 BKN200
     FM290200 16008KT P6SM BKN080 OVC120
     FM291000 16011G19KT P6SM BKN045 OVC080
     FM291300 17012KT 4SM -FZRAPL BKN030 OVC045
     FM291600 21010KT 2SM -RA BR BKN008 OVC022
     FM292000 29014G20KT 3SM -SHSN BKN018 OVC035=



000
FTUS43 KDTX 282008 AAA
TAFDTW
TAF AMD
KDTW 282008Z 2820/2924 17006KT P6SM SCT120 BKN200
     FM290200 16008KT P6SM BKN080 OVC120
     FM291000 16011G19KT P6SM BKN045 OVC080
     FM291300 17012KT 4SM -FZRAPL BKN030 OVC045
     FM291600 21010KT 2SM -RA BR BKN008 OVC022
     FM292000 29014G20KT 3SM -SHSN BKN018 OVC035=



    US Dept of Commerce
    National Oceanic and Atmospheric Administration
    National Weather Service
    1325 East West Highway
    Silver Spring, MD 20910
    Page Author: NWS Internet Services Team
Disclaimer
Information Quality
Credits
Glossary
Privacy Policy
Freedom of Information Act (FOIA)
About Us
Career Opportunities